createdAt,value
2018-08-03T00:00:26.989Z,65.20
2018-08-03T00:01:26.966Z,65.11
2018-08-03T00:02:27.015Z,65.88
2018-08-03T00:03:26.936Z,65.30
2018-08-03T00:04:26.913Z,65.20
2018-08-03T00:05:26.894Z,65.50
2018-08-03T00:06:26.874Z,65.50
2018-08-03T00:07:26.854Z,65.50
2018-08-03T00:08:26.825Z,65.50
2018-08-03T00:09:26.809Z,65.69
2018-08-03T00:10:27.877Z,65.78
2018-08-03T00:11:26.773Z,65.88
2018-08-03T00:12:26.869Z,65.78
2018-08-03T00:13:26.874Z,65.88
2018-08-03T00:14:26.782Z,65.98
2018-08-03T00:15:26.683Z,66.05
2018-08-03T00:16:27.716Z,66.14
2018-08-03T00:17:26.658Z,66.43
2018-08-03T00:18:26.706Z,66.43
2018-08-03T00:19:26.623Z,66.72
2018-08-03T00:20:26.588Z,66.27
2018-08-03T00:21:26.583Z,66.72
2018-08-03T00:22:26.559Z,66.82
2018-08-03T00:23:26.559Z,66.63
2018-08-03T00:24:26.524Z,66.24
2018-08-03T00:25:26.563Z,66.24
2018-08-03T00:26:26.465Z,66.53
2018-08-03T00:27:26.447Z,66.53
2018-08-03T00:28:26.431Z,66.72
2018-08-03T00:29:26.414Z,66.72
2018-08-03T00:30:26.394Z,66.63
2018-08-03T00:32:14.381Z,66.43
2018-08-03T00:33:14.371Z,67.01
2018-08-03T00:34:14.313Z,66.91
2018-08-03T00:35:14.295Z,66.91
2018-08-03T00:36:14.275Z,67.20
2018-08-03T00:37:14.246Z,67.01
2018-08-03T00:38:14.231Z,66.82
2018-08-03T00:39:14.238Z,66.97
2018-08-03T00:40:14.201Z,66.91
2018-08-03T00:41:14.174Z,67.27
2018-08-03T00:42:14.149Z,67.46
2018-08-03T00:43:14.137Z,67.27
2018-08-03T00:44:14.227Z,67.46
2018-08-03T00:45:14.111Z,67.17
2018-08-03T00:46:14.063Z,67.27
2018-08-03T00:47:14.049Z,67.46
2018-08-03T00:48:14.036Z,67.36
2018-08-03T00:49:15.082Z,67.17
2018-08-03T00:50:14.001Z,67.36
2018-08-03T00:51:14.075Z,67.36
2018-08-03T00:52:13.944Z,67.17
2018-08-03T00:53:13.985Z,67.75
2018-08-03T00:54:13.911Z,67.36
2018-08-03T00:55:14.008Z,67.85
2018-08-03T00:56:13.866Z,67.55
2018-08-03T00:57:13.905Z,67.85
2018-08-03T00:58:13.826Z,67.75
2018-08-03T00:59:13.920Z,67.65
2018-08-03T01:00:13.782Z,68.04
2018-08-03T01:01:13.834Z,68.04
2018-08-03T01:02:13.743Z,68.13
2018-08-03T01:03:13.842Z,68.04
2018-08-03T01:04:13.719Z,68.13
2018-08-03T01:05:13.748Z,68.04
2018-08-03T01:06:13.663Z,68.13
2018-08-03T01:07:13.763Z,68.43
2018-08-03T01:08:13.625Z,68.43
2018-08-03T01:09:13.678Z,68.33
2018-08-03T01:10:13.589Z,68.10
2018-08-03T01:11:13.611Z,69.29
2018-08-03T01:12:13.544Z,68.71
2018-08-03T01:13:13.598Z,68.71
2018-08-03T01:14:13.501Z,68.77
2018-08-03T01:15:13.518Z,68.49
2018-08-03T01:16:13.457Z,69.07
2018-08-03T01:17:13.527Z,68.87
2018-08-03T01:18:13.422Z,68.87
2018-08-03T01:19:13.452Z,69.07
2018-08-03T01:20:13.382Z,68.97
2018-08-03T01:21:14.483Z,69.26
2018-08-03T01:22:13.345Z,69.07
2018-08-03T01:24:06.970Z,69.07
2018-08-03T01:25:06.996Z,69.16
2018-08-03T01:27:13.235Z,69.55
2018-08-03T01:28:13.205Z,69.55
2018-08-03T01:29:13.173Z,69.55
2018-08-03T01:30:13.152Z,69.74
2018-08-03T01:31:13.232Z,69.55
2018-08-03T01:32:13.104Z,69.45
2018-08-03T01:33:13.092Z,69.93
2018-08-03T01:34:13.078Z,69.90
2018-08-03T01:35:13.055Z,69.84
2018-08-03T01:36:13.122Z,69.93
2018-08-03T01:37:13.014Z,69.93
2018-08-03T01:38:12.997Z,70.13
2018-08-03T01:39:12.966Z,70.22
2018-08-03T01:40:12.951Z,70.03
2018-08-03T01:41:12.928Z,70.38
2018-08-03T01:42:12.922Z,70.00
2018-08-03T01:43:12.885Z,70.19
2018-08-03T01:44:12.874Z,70.61
2018-08-03T01:45:12.843Z,70.22
2018-08-03T01:46:12.835Z,70.51
2018-08-03T01:47:12.801Z,70.57
2018-08-03T01:48:12.801Z,70.76
2018-08-03T01:49:12.808Z,70.57
2018-08-03T01:50:12.745Z,70.57
2018-08-03T01:51:12.738Z,70.76
2018-08-03T01:52:12.700Z,70.57
2018-08-03T01:53:12.683Z,70.57
2018-08-03T01:54:12.659Z,70.48
2018-08-03T01:55:12.632Z,70.38
2018-08-03T01:56:58.930Z,70.67
2018-08-03T01:57:58.892Z,71.15
2018-08-03T01:59:52.362Z,71.15
2018-08-03T02:00:52.353Z,71.54
2018-08-03T02:01:52.412Z,71.44
2018-08-03T02:02:52.286Z,71.73
2018-08-03T02:03:52.334Z,71.34
2018-08-03T02:04:52.268Z,71.54
2018-08-03T02:05:52.235Z,71.44
2018-08-03T02:06:52.238Z,72.12
2018-08-03T02:07:52.192Z,72.08
2018-08-03T02:08:52.172Z,72.21
2018-08-03T02:09:52.178Z,72.21
2018-08-03T02:10:52.125Z,71.83
2018-08-03T02:11:52.134Z,72.31
2018-08-03T02:12:52.082Z,72.12
2018-08-03T02:13:52.080Z,72.56
2018-08-03T02:14:52.046Z,72.37
2018-08-03T02:15:52.033Z,72.75
2018-08-03T02:16:52.110Z,72.95
2018-08-03T02:17:51.984Z,72.66
2018-08-03T02:18:51.964Z,72.95
2018-08-03T02:19:51.937Z,73.33
2018-08-03T02:20:51.954Z,73.14
2018-08-03T02:21:51.895Z,73.33
2018-08-03T02:22:51.876Z,73.14
2018-08-03T02:23:51.888Z,72.95
2018-08-03T02:24:51.839Z,73.33
2018-08-03T02:25:51.828Z,73.33
2018-08-03T02:26:51.796Z,73.62
2018-08-03T02:27:51.863Z,73.24
2018-08-03T02:28:51.763Z,73.62
2018-08-03T02:29:51.730Z,73.72
2018-08-03T02:30:51.782Z,73.62
2018-08-03T02:31:51.691Z,73.53
2018-08-03T02:32:51.669Z,73.72
2018-08-03T02:33:52.728Z,73.62
2018-08-03T02:34:51.639Z,74.10
2018-08-03T02:35:56.330Z,74.10
2018-08-03T02:36:51.583Z,74.30
2018-08-03T02:37:53.677Z,74.10
2018-08-03T02:38:51.560Z,73.62
2018-08-03T02:39:51.540Z,74.10
2018-08-03T02:40:51.497Z,74.40
2018-08-03T02:41:52.604Z,74.68
2018-08-03T02:42:51.464Z,74.40
2018-08-03T02:43:53.527Z,74.10
2018-08-03T02:44:51.424Z,74.20
2018-08-03T02:45:51.480Z,73.91
2018-08-03T02:46:51.386Z,73.91
2018-08-03T02:47:52.440Z,73.62
2018-08-03T02:48:51.329Z,73.62
2018-08-03T02:49:51.407Z,73.72
2018-08-03T02:50:51.311Z,73.62
2018-08-03T02:51:51.320Z,73.53
2018-08-03T02:52:51.272Z,73.82
2018-08-03T02:53:51.337Z,74.20
2018-08-03T02:54:51.207Z,74.30
2018-08-03T02:55:51.190Z,73.72
2018-08-03T02:56:51.174Z,74.40
2018-08-03T02:57:51.261Z,74.10
2018-08-03T02:58:51.125Z,74.20
2018-08-03T02:59:51.115Z,74.58
2018-08-03T03:00:51.080Z,74.58
2018-08-03T03:01:52.107Z,74.20
2018-08-03T03:02:51.041Z,74.30
2018-08-03T03:03:55.905Z,74.40
2018-08-03T03:04:50.998Z,74.20
2018-08-03T03:05:56.842Z,74.40
2018-08-03T03:06:50.959Z,74.68
2018-08-03T03:07:50.963Z,74.49
2018-08-03T03:08:50.929Z,74.97
2018-08-03T03:09:52.977Z,74.93
2018-08-03T03:10:50.889Z,74.84
2018-08-03T03:11:56.879Z,74.84
2018-08-03T03:12:50.840Z,75.32
2018-08-03T03:13:50.857Z,75.23
2018-08-03T03:14:50.805Z,74.93
2018-08-03T03:15:50.863Z,75.61
2018-08-03T03:16:50.752Z,75.61
2018-08-03T03:17:51.800Z,75.80
2018-08-03T03:18:50.714Z,75.90
2018-08-03T03:19:50.811Z,75.99
2018-08-03T03:20:50.692Z,76.28
2018-08-03T03:21:50.708Z,76.28
2018-08-03T03:22:50.630Z,76.09
2018-08-03T03:23:50.711Z,76.28
2018-08-03T03:24:50.584Z,76.57
2018-08-03T03:25:52.677Z,76.09
2018-08-03T03:26:50.542Z,76.28
2018-08-03T03:27:50.544Z,76.48
2018-08-03T03:28:50.503Z,76.28
2018-08-03T03:29:50.600Z,76.86
2018-08-03T03:30:50.459Z,76.57
2018-08-03T03:31:50.513Z,76.48
2018-08-03T03:32:50.422Z,76.86
2018-08-03T03:33:51.443Z,77.15
2018-08-03T03:34:50.381Z,77.15
2018-08-03T03:35:50.430Z,76.67
2018-08-03T03:36:50.331Z,77.15
2018-08-03T03:37:51.380Z,77.06
2018-08-03T03:38:50.289Z,76.57
2018-08-03T03:39:50.365Z,76.76
2018-08-03T03:40:50.241Z,76.76
2018-08-03T03:41:50.297Z,77.06
2018-08-03T03:42:51.819Z,76.67
2018-08-03T03:43:50.291Z,77.44
2018-08-03T03:44:50.169Z,77.44
2018-08-03T03:45:50.210Z,77.34
2018-08-03T03:46:50.137Z,77.21
2018-08-03T03:47:51.129Z,77.15
2018-08-03T03:48:50.080Z,77.40
2018-08-03T03:49:50.140Z,77.59
2018-08-03T03:50:50.073Z,77.50
2018-08-03T03:51:51.053Z,77.78
2018-08-03T03:52:49.998Z,77.59
2018-08-03T03:53:50.046Z,77.40
2018-08-03T03:54:49.966Z,77.59
2018-08-03T03:55:50.062Z,77.78
2018-08-03T03:56:49.926Z,77.11
2018-08-03T03:57:50.991Z,77.15
2018-08-03T03:58:49.870Z,77.31
2018-08-03T03:59:49.878Z,77.11
2018-08-03T04:00:49.851Z,77.78
2018-08-03T04:01:49.892Z,77.59
2018-08-03T04:02:49.795Z,77.21
2018-08-03T04:03:50.831Z,77.01
2018-08-03T04:04:49.745Z,77.59
2018-08-03T04:05:50.836Z,77.06
2018-08-03T04:06:49.705Z,77.63
2018-08-03T04:07:49.728Z,77.01
2018-08-03T04:08:49.672Z,77.69
2018-08-03T04:09:50.660Z,77.01
2018-08-03T04:10:49.629Z,77.50
2018-08-03T04:11:49.659Z,77.15
2018-08-03T04:12:49.579Z,77.15
2018-08-03T04:13:50.697Z,77.06
2018-08-03T04:14:49.583Z,77.15
2018-08-03T04:15:50.599Z,77.69
2018-08-03T04:16:49.529Z,77.69
2018-08-03T04:17:50.520Z,77.98
2018-08-03T04:18:49.455Z,77.78
2018-08-03T04:19:49.501Z,77.88
2018-08-03T04:20:49.433Z,77.88
2018-08-03T04:21:49.417Z,77.98
2018-08-03T04:22:49.370Z,77.98
2018-08-03T04:23:49.427Z,77.59
2018-08-03T04:24:49.336Z,77.59
2018-08-03T04:25:49.341Z,77.59
2018-08-03T04:26:49.298Z,77.78
2018-08-03T04:27:50.379Z,77.06
2018-08-03T04:28:49.259Z,77.15
2018-08-03T04:29:49.260Z,77.63
2018-08-03T04:30:49.206Z,77.78
2018-08-03T04:31:51.221Z,77.59
2018-08-03T04:32:49.163Z,77.59
2018-08-03T04:33:50.209Z,77.69
2018-08-03T04:34:49.127Z,77.69
2018-08-03T04:35:49.142Z,77.83
2018-08-03T04:36:49.081Z,77.69
2018-08-03T04:37:49.157Z,78.02
2018-08-03T04:38:49.073Z,77.50
2018-08-03T04:39:50.105Z,77.63
2018-08-03T04:40:49.015Z,77.83
2018-08-03T04:41:49.078Z,77.63
2018-08-03T04:42:48.953Z,77.53
2018-08-03T04:43:48.988Z,77.92
2018-08-03T04:44:48.930Z,77.34
2018-08-03T04:45:49.926Z,77.06
2018-08-03T04:46:48.878Z,77.31
2018-08-03T04:47:48.916Z,77.50
2018-08-03T04:48:48.839Z,77.73
2018-08-03T04:49:48.827Z,77.59
2018-08-03T04:50:48.817Z,78.08
2018-08-03T04:51:48.839Z,77.69
2018-08-03T04:52:48.776Z,77.88
2018-08-03T04:53:48.789Z,78.11
2018-08-03T04:54:48.754Z,77.92
2018-08-03T04:55:48.698Z,77.78
2018-08-03T04:56:48.663Z,77.88
2018-08-03T04:57:48.682Z,77.88
2018-08-03T04:58:48.620Z,78.02
2018-08-03T04:59:48.608Z,77.88
2018-08-03T05:00:48.591Z,77.83
2018-08-03T05:01:48.588Z,77.92
2018-08-03T05:02:48.535Z,77.63
2018-08-03T05:03:48.553Z,77.44
2018-08-03T05:04:48.552Z,77.63
2018-08-03T05:05:48.566Z,77.63
2018-08-03T05:06:48.457Z,77.63
2018-08-03T05:07:48.437Z,76.67
2018-08-03T05:08:49.512Z,76.67
2018-08-03T05:09:48.406Z,76.67
2018-08-03T05:10:48.522Z,76.48
2018-08-03T05:11:48.365Z,76.76
2018-08-03T05:12:52.915Z,76.67
2018-08-03T05:13:48.310Z,76.86
2018-08-03T05:14:48.452Z,77.00
2018-08-03T05:15:48.279Z,76.13
2018-08-03T05:16:48.259Z,76.13
2018-08-03T05:17:48.370Z,76.76
2018-08-03T05:18:48.208Z,76.80
2018-08-03T05:19:49.281Z,76.71
2018-08-03T05:20:48.163Z,76.42
2018-08-03T05:21:48.284Z,76.90
2018-08-03T05:22:48.120Z,76.80
2018-08-03T05:23:48.189Z,76.51
2018-08-03T05:24:48.083Z,76.42
2018-08-03T05:25:50.099Z,76.32
2018-08-03T05:26:48.041Z,76.32
2018-08-03T05:28:33.937Z,76.03
2018-08-03T05:29:33.945Z,76.23
2018-08-03T05:31:28.482Z,76.80
2018-08-03T05:32:27.340Z,76.71
2018-08-03T05:33:27.413Z,76.80
2018-08-03T05:34:27.295Z,76.51
2018-08-03T05:35:27.420Z,76.51
2018-08-03T05:36:27.267Z,76.32
2018-08-03T05:37:27.301Z,76.51
2018-08-03T05:38:27.222Z,76.23
2018-08-03T05:39:27.306Z,76.42
2018-08-03T05:40:27.170Z,76.23
2018-08-03T05:41:27.737Z,75.74
2018-08-03T05:42:27.153Z,75.93
2018-08-03T05:43:27.123Z,75.88
2018-08-03T05:44:27.101Z,76.23
2018-08-03T05:45:27.156Z,76.26
2018-08-03T05:46:27.065Z,75.84
2018-08-03T05:47:27.070Z,76.36
2018-08-03T05:48:27.032Z,75.88
2018-08-03T05:49:27.067Z,75.10
2018-08-03T05:50:26.977Z,75.40
2018-08-03T05:51:26.972Z,75.40
2018-08-03T05:52:26.970Z,75.40
2018-08-03T05:53:26.983Z,75.49
2018-08-03T05:54:26.880Z,75.43
2018-08-03T05:55:26.897Z,75.24
2018-08-03T05:56:26.839Z,74.76
2018-08-03T05:57:26.914Z,74.47
2018-08-03T05:58:26.806Z,74.27
2018-08-03T05:59:26.798Z,74.47
2018-08-03T06:00:26.832Z,73.89
2018-08-03T06:01:26.752Z,73.83
2018-08-03T06:02:26.750Z,74.60
2018-08-03T06:03:26.703Z,73.93
2018-08-03T06:04:26.762Z,73.25
2018-08-03T06:05:26.658Z,73.73
2018-08-03T06:06:26.771Z,72.77
2018-08-03T06:07:26.629Z,72.96
2018-08-03T06:08:26.680Z,72.67
2018-08-03T06:09:26.608Z,72.67
2018-08-03T06:10:26.724Z,73.25
2018-08-03T06:11:26.543Z,73.93
2018-08-03T06:12:26.886Z,72.67
2018-08-03T06:13:26.490Z,73.25
2018-08-03T06:14:26.650Z,73.54
2018-08-03T06:15:26.444Z,73.28
2018-08-03T06:16:26.426Z,73.19
2018-08-03T06:17:26.549Z,72.32
2018-08-03T06:18:26.393Z,73.09
2018-08-03T06:19:26.455Z,73.00
2018-08-03T06:20:26.342Z,72.42
2018-08-03T06:21:27.391Z,72.42
2018-08-03T06:22:26.313Z,72.90
2018-08-03T06:23:41.967Z,72.42
2018-08-03T06:24:26.249Z,72.22
2018-08-03T06:25:26.408Z,72.42
2018-08-03T06:26:26.217Z,72.61
2018-08-03T06:27:30.954Z,72.61
2018-08-03T06:28:26.184Z,72.52
2018-08-03T06:29:26.397Z,72.71
2018-08-03T06:30:26.134Z,71.94
2018-08-03T06:31:27.305Z,72.32
2018-08-03T06:32:26.098Z,72.61
2018-08-03T06:33:26.077Z,72.32
2018-08-03T06:34:26.226Z,72.42
2018-08-03T06:35:26.018Z,72.74
2018-08-03T06:36:26.211Z,71.97
2018-08-03T06:37:25.989Z,72.45
2018-08-03T06:38:26.114Z,72.16
2018-08-03T06:39:25.961Z,71.78
2018-08-03T06:40:26.127Z,71.68
2018-08-03T06:41:25.891Z,71.68
2018-08-03T06:42:26.038Z,72.20
2018-08-03T06:43:25.859Z,72.30
2018-08-03T06:44:26.990Z,71.81
2018-08-03T06:45:25.813Z,71.04
2018-08-03T06:46:25.968Z,71.23
2018-08-03T06:47:25.766Z,71.04
2018-08-03T06:48:25.944Z,71.08
2018-08-03T06:49:25.722Z,71.04
2018-08-03T06:50:30.493Z,71.17
2018-08-03T06:51:25.704Z,70.88
2018-08-03T06:52:31.465Z,70.40
2018-08-03T06:53:25.635Z,70.59
2018-08-03T06:54:25.632Z,70.78
2018-08-03T06:55:25.595Z,70.53
2018-08-03T06:56:25.732Z,71.17
2018-08-03T06:57:25.561Z,70.92
2018-08-03T06:58:25.538Z,70.72
2018-08-03T06:59:25.528Z,71.78
2018-08-03T07:00:25.483Z,71.11
2018-08-03T07:01:25.460Z,70.04
2018-08-03T07:02:25.568Z,71.46
2018-08-03T07:03:25.435Z,72.36
2018-08-03T07:04:25.462Z,71.69
2018-08-03T07:05:25.385Z,71.69
2018-08-03T07:06:25.354Z,71.88
2018-08-03T07:07:25.351Z,71.30
2018-08-03T07:08:25.341Z,71.01
2018-08-03T07:09:25.292Z,71.20
2018-08-03T07:10:26.439Z,71.30
2018-08-03T07:11:25.278Z,70.62
2018-08-03T07:12:25.258Z,70.56
2018-08-03T07:13:25.209Z,69.98
2018-08-03T07:14:25.196Z,70.66
2018-08-03T07:15:25.194Z,70.86
2018-08-03T07:16:25.264Z,70.47
2018-08-03T07:17:25.122Z,70.37
2018-08-03T07:18:25.231Z,70.18
2018-08-03T07:19:25.076Z,70.18
2018-08-03T07:20:25.264Z,70.31
2018-08-03T07:21:25.029Z,69.89
2018-08-03T07:22:25.086Z,70.08
2018-08-03T07:23:25.005Z,69.53
2018-08-03T07:24:24.972Z,69.73
2018-08-03T07:25:24.944Z,69.82
2018-08-03T07:26:24.974Z,70.40
2018-08-03T07:27:25.010Z,70.18
2018-08-03T07:28:24.896Z,70.40
2018-08-03T07:29:24.924Z,70.31
2018-08-03T07:30:24.847Z,70.89
2018-08-03T07:31:24.831Z,70.89
2018-08-03T07:32:24.799Z,69.63
2018-08-03T07:33:24.776Z,70.21
2018-08-03T07:34:24.769Z,69.82
2018-08-03T07:35:24.761Z,69.63
2018-08-03T07:36:24.712Z,69.57
2018-08-03T07:37:24.794Z,69.08
2018-08-03T07:38:24.670Z,68.99
2018-08-03T07:39:24.654Z,68.40
2018-08-03T07:40:24.695Z,69.60
2018-08-03T07:41:24.604Z,69.08
2018-08-03T07:42:24.716Z,69.08
2018-08-03T07:43:24.689Z,69.08
2018-08-03T07:44:24.651Z,68.30
2018-08-03T07:45:24.520Z,68.24
2018-08-03T07:46:24.526Z,67.95
2018-08-03T07:47:24.475Z,68.05
2018-08-03T07:48:24.578Z,67.57
2018-08-03T07:49:24.444Z,67.57
2018-08-03T07:50:24.451Z,67.57
2018-08-03T07:51:24.399Z,68.15
2018-08-03T07:52:24.383Z,67.37
2018-08-03T07:53:24.353Z,67.69
2018-08-03T07:54:24.375Z,67.02
2018-08-03T07:55:24.316Z,67.50
2018-08-03T07:56:24.394Z,67.21
2018-08-03T07:57:24.263Z,68.18
2018-08-03T07:58:24.303Z,69.24
2018-08-03T07:59:24.215Z,67.69
2018-08-03T08:00:24.206Z,67.50
2018-08-03T08:01:24.220Z,67.69
2018-08-03T08:02:24.167Z,67.40
2018-08-03T08:03:24.236Z,67.02
2018-08-03T08:04:24.111Z,66.63
2018-08-03T08:05:24.149Z,66.47
2018-08-03T08:06:24.133Z,66.76
2018-08-03T08:07:24.088Z,67.14
2018-08-03T08:08:24.021Z,66.47
2018-08-03T08:09:24.081Z,66.56
2018-08-03T08:10:23.990Z,66.37
2018-08-03T08:11:24.015Z,66.76
2018-08-03T08:12:23.943Z,65.98
2018-08-03T08:13:24.018Z,65.89
2018-08-03T08:14:23.925Z,65.98
2018-08-03T08:15:23.920Z,66.21
2018-08-03T08:16:23.852Z,65.92
2018-08-03T08:17:23.845Z,66.02
2018-08-03T08:18:23.831Z,66.11
2018-08-03T08:19:23.839Z,66.11
2018-08-03T08:20:23.767Z,65.43
2018-08-03T08:21:23.871Z,65.63
2018-08-03T08:22:23.726Z,65.92
2018-08-03T08:23:23.768Z,65.27
2018-08-03T08:24:23.694Z,65.17
2018-08-03T08:25:23.778Z,65.17
2018-08-03T08:26:23.641Z,65.17
2018-08-03T08:27:23.690Z,64.69
2018-08-03T08:28:23.604Z,64.88
2018-08-03T08:29:23.596Z,64.91
2018-08-03T08:30:23.561Z,65.40
2018-08-03T08:31:23.641Z,65.11
2018-08-03T08:32:23.538Z,63.84
2018-08-03T08:33:23.489Z,63.75
2018-08-03T08:34:23.524Z,64.33
2018-08-03T08:35:23.462Z,64.23
2018-08-03T08:36:23.553Z,63.65
2018-08-03T08:37:23.422Z,63.65
2018-08-03T08:38:23.469Z,62.71
2018-08-03T08:39:23.371Z,63.00
2018-08-03T08:40:23.371Z,62.81
2018-08-03T08:41:23.322Z,63.10
2018-08-03T08:42:23.328Z,62.90
2018-08-03T08:43:23.447Z,62.90
2018-08-03T08:44:23.265Z,62.54
2018-08-03T08:45:23.307Z,62.06
2018-08-03T08:46:23.221Z,62.16
2018-08-03T08:47:23.217Z,61.87
2018-08-03T08:48:23.172Z,62.06
2018-08-03T08:49:23.220Z,61.87
2018-08-03T08:50:23.136Z,61.67
2018-08-03T08:51:23.131Z,60.89
2018-08-03T08:52:23.113Z,61.51
2018-08-03T08:53:23.157Z,60.82
2018-08-03T08:54:23.054Z,60.63
2018-08-03T08:55:23.060Z,61.02
2018-08-03T08:56:23.028Z,61.11
2018-08-03T08:57:23.079Z,60.92
2018-08-03T08:58:22.988Z,61.11
2018-08-03T08:59:22.978Z,60.82
2018-08-03T09:00:22.929Z,60.44
2018-08-03T09:01:22.915Z,60.56
2018-08-03T09:02:22.905Z,60.56
2018-08-03T09:03:22.864Z,60.95
2018-08-03T09:04:22.919Z,60.85
2018-08-03T09:05:22.847Z,60.66
2018-08-03T09:06:22.828Z,59.88
2018-08-03T09:07:22.871Z,58.91
2018-08-03T09:08:22.841Z,59.69
2018-08-03T09:09:22.751Z,59.88
2018-08-03T09:10:22.715Z,59.59
2018-08-03T09:11:22.762Z,59.72
2018-08-03T09:12:22.681Z,59.42
2018-08-03T09:13:22.709Z,58.94
2018-08-03T09:14:22.643Z,58.77
2018-08-03T09:15:22.684Z,59.35
2018-08-03T09:16:22.615Z,57.70
2018-08-03T09:17:22.686Z,57.79
2018-08-03T09:18:22.605Z,58.58
2018-08-03T09:19:22.549Z,58.58
2018-08-03T09:20:22.610Z,58.60
2018-08-03T09:21:22.497Z,58.12
2018-08-03T09:22:22.518Z,57.17
2018-08-03T09:23:22.468Z,58.14
2018-08-03T09:24:22.528Z,56.97
2018-08-03T09:25:22.408Z,57.07
2018-08-03T09:26:22.404Z,56.68
2018-08-03T09:27:22.368Z,55.12
2018-08-03T09:28:22.502Z,55.41
2018-08-03T09:29:22.366Z,54.83
2018-08-03T09:30:22.359Z,55.02
2018-08-03T09:31:22.300Z,54.93
2018-08-03T09:32:22.368Z,54.63
2018-08-03T09:33:22.239Z,55.61
2018-08-03T09:34:22.236Z,54.66
2018-08-03T09:35:22.288Z,53.78
2018-08-03T09:36:22.209Z,53.49
2018-08-03T09:37:22.172Z,53.78
2018-08-03T09:38:22.146Z,53.49
2018-08-03T09:39:22.165Z,52.90
2018-08-03T09:40:22.126Z,50.16
2018-08-03T09:41:22.085Z,51.53
2018-08-03T09:42:22.067Z,52.80
2018-08-03T09:43:22.050Z,52.80
2018-08-03T09:44:22.029Z,52.80
2018-08-03T09:45:22.007Z,53.49
2018-08-03T09:46:21.982Z,52.90
2018-08-03T09:47:21.961Z,51.95
2018-08-03T09:48:21.931Z,51.73
2018-08-03T09:49:21.921Z,53.03
2018-08-03T09:50:21.909Z,52.93
2018-08-03T09:51:21.885Z,51.68
2018-08-03T09:52:21.861Z,51.56
2018-08-03T09:53:21.834Z,51.49
2018-08-03T09:54:21.836Z,50.81
2018-08-03T09:56:07.729Z,51.10
2018-08-03T09:57:07.703Z,51.29
2018-08-03T09:59:01.307Z,50.73
2018-08-03T10:00:01.217Z,49.65
2018-08-03T10:01:01.216Z,49.63
2018-08-03T10:02:01.168Z,50.02
2018-08-03T10:03:01.149Z,49.73
2018-08-03T10:04:01.131Z,49.82
2018-08-03T10:05:01.101Z,49.24
2018-08-03T10:06:01.086Z,49.33
2018-08-03T10:07:01.067Z,49.85
2018-08-03T10:08:01.147Z,49.29
2018-08-03T10:09:01.053Z,48.82
2018-08-03T10:10:01.005Z,47.65
2018-08-03T10:11:00.982Z,47.26
2018-08-03T10:12:00.976Z,46.50
2018-08-03T10:13:00.988Z,46.30
2018-08-03T10:14:00.934Z,46.40
2018-08-03T10:15:00.906Z,46.20
2018-08-03T10:16:01.922Z,47.08
2018-08-03T10:17:00.867Z,46.20
2018-08-03T10:18:00.843Z,47.45
2018-08-03T10:19:00.864Z,48.04
2018-08-03T10:20:02.812Z,46.20
2018-08-03T10:21:00.797Z,47.26
2018-08-03T10:22:00.778Z,47.38
2018-08-03T10:23:00.746Z,46.62
2018-08-03T10:24:00.721Z,45.83
2018-08-03T10:25:00.704Z,45.47
2018-08-03T10:26:00.719Z,44.78
2018-08-03T10:27:00.683Z,45.66
2018-08-03T10:28:01.658Z,44.48
2018-08-03T10:29:00.638Z,44.29
2018-08-03T10:30:46.520Z,45.27
2018-08-03T10:31:46.527Z,44.38
2018-08-03T10:32:46.436Z,44.19
2018-08-03T10:33:46.436Z,43.90
2018-08-03T10:34:46.399Z,43.77
2018-08-03T10:35:46.455Z,43.77
2018-08-03T10:36:46.354Z,44.34
2018-08-03T10:37:48.410Z,44.83
2018-08-03T10:38:46.499Z,45.10
2018-08-03T10:39:46.369Z,45.59
2018-08-03T10:40:46.280Z,45.79
2018-08-03T10:41:46.286Z,45.59
2018-08-03T10:42:46.277Z,45.89
2018-08-03T10:43:46.303Z,45.69
2018-08-03T10:44:46.241Z,45.59
2018-08-03T10:45:46.246Z,45.20
2018-08-03T10:46:46.153Z,45.40
2018-08-03T10:47:46.227Z,45.59
2018-08-03T10:48:46.137Z,45.32
2018-08-03T10:49:47.159Z,45.62
2018-08-03T10:50:46.086Z,45.23
2018-08-03T10:51:46.124Z,46.11
2018-08-03T10:52:46.060Z,45.62
2018-08-03T10:53:46.191Z,45.93
2018-08-03T10:54:45.992Z,45.27
2018-08-03T10:55:46.043Z,44.38
2018-08-03T10:56:45.963Z,43.21
2018-08-03T10:57:46.018Z,42.91
2018-08-03T10:58:45.929Z,43.60
2018-08-03T10:59:46.918Z,42.25
2018-08-03T11:00:45.919Z,42.82
2018-08-03T11:01:46.042Z,43.33
2018-08-03T11:02:45.841Z,42.91
2018-08-03T11:03:46.886Z,42.82
2018-08-03T11:04:45.804Z,42.52
2018-08-03T11:05:45.872Z,42.91
2018-08-03T11:06:45.799Z,40.95
2018-08-03T11:07:45.808Z,40.56
2018-08-03T11:08:45.725Z,40.74
2018-08-03T11:09:45.792Z,40.45
2018-08-03T11:10:45.707Z,40.55
2018-08-03T11:12:32.200Z,40.74
2018-08-03T11:13:32.269Z,40.55
2018-08-03T11:14:32.122Z,39.76
2018-08-03T11:15:32.215Z,39.17
2018-08-03T11:16:32.085Z,39.29
2018-08-03T11:17:32.125Z,39.00
2018-08-03T11:18:32.048Z,39.49
2018-08-03T11:19:32.145Z,40.37
2018-08-03T11:20:32.010Z,40.47
2018-08-03T11:21:32.051Z,40.76
2018-08-03T11:22:31.970Z,40.47
2018-08-03T11:23:32.064Z,40.58
2018-08-03T11:24:31.934Z,39.72
2018-08-03T11:25:31.966Z,39.33
2018-08-03T11:26:31.886Z,38.56
2018-08-03T11:27:31.992Z,38.85
2018-08-03T11:28:31.851Z,39.07
2018-08-03T11:29:31.897Z,37.92
2018-08-03T11:30:31.812Z,36.22
2018-08-03T11:31:31.942Z,36.03
2018-08-03T11:32:31.783Z,36.21
2018-08-03T11:33:31.830Z,37.09
2018-08-03T11:34:31.730Z,37.19
2018-08-03T11:35:31.830Z,37.29
2018-08-03T11:36:31.708Z,37.98
2018-08-03T11:37:31.754Z,37.37
2018-08-03T11:38:31.666Z,38.27
2018-08-03T11:39:31.649Z,37.29
2018-08-03T11:40:31.617Z,37.29
2018-08-03T11:41:31.667Z,38.09
2018-08-03T11:42:31.600Z,37.92
2018-08-03T11:43:31.578Z,36.93
2018-08-03T11:44:31.545Z,35.67
2018-08-03T11:45:31.589Z,36.16
2018-08-03T11:46:31.520Z,34.99
2018-08-03T11:47:31.496Z,33.72
2018-08-03T11:48:31.475Z,34.11
2018-08-03T11:49:31.516Z,33.92
2018-08-03T11:50:31.432Z,32.74
2018-08-03T11:51:31.423Z,32.45
2018-08-03T11:52:31.406Z,32.93
2018-08-03T11:53:31.454Z,32.53
2018-08-03T11:55:17.526Z,33.69
2018-08-03T11:56:17.493Z,33.89
2018-08-03T11:57:17.536Z,34.26
2018-08-03T11:58:17.471Z,34.05
2018-08-03T11:59:17.444Z,34.66
2018-08-03T12:00:17.412Z,34.74
2018-08-03T12:01:17.456Z,35.33
2018-08-03T12:02:17.364Z,35.23
2018-08-03T12:03:17.362Z,35.74
2018-08-03T12:04:17.327Z,36.32
2018-08-03T12:05:17.380Z,36.32
2018-08-03T12:06:17.280Z,36.91
2018-08-03T12:07:17.291Z,37.60
2018-08-03T12:08:17.241Z,37.30
2018-08-03T12:09:17.302Z,37.01
2018-08-03T12:10:17.215Z,36.72
2018-08-03T12:11:17.213Z,36.91
2018-08-03T12:12:17.185Z,37.90
2018-08-03T12:13:17.230Z,36.74
2018-08-03T12:14:17.129Z,35.95
2018-08-03T12:15:17.144Z,34.99
2018-08-03T12:16:17.096Z,34.69
2018-08-03T12:17:17.160Z,33.72
2018-08-03T12:18:17.055Z,33.64
2018-08-03T12:19:17.060Z,33.12
2018-08-03T12:20:17.019Z,32.72
2018-08-03T12:21:17.074Z,32.82
2018-08-03T12:22:17.010Z,33.70
2018-08-03T12:23:16.983Z,34.10
2018-08-03T12:24:16.977Z,34.99
2018-08-03T12:25:16.996Z,35.39
2018-08-03T12:26:16.910Z,33.82
2018-08-03T12:27:16.916Z,34.22
2018-08-03T12:28:16.875Z,34.80
2018-08-03T12:29:16.925Z,34.31
2018-08-03T12:30:16.834Z,32.86
2018-08-03T12:31:16.884Z,33.05
2018-08-03T12:32:16.798Z,32.17
2018-08-03T12:33:16.844Z,31.54
2018-08-03T12:34:16.791Z,33.53
2018-08-03T12:35:16.769Z,33.82
2018-08-03T12:36:16.731Z,33.82
2018-08-03T12:37:16.784Z,34.00
2018-08-03T12:38:16.682Z,34.10
2018-08-03T12:39:16.684Z,34.39
2018-08-03T12:40:16.656Z,34.20
2018-08-03T12:41:16.697Z,34.49
2018-08-03T12:42:16.605Z,33.82
2018-08-03T12:43:16.615Z,34.01
2018-08-03T12:44:16.582Z,33.94
2018-08-03T12:45:16.613Z,31.56
2018-08-03T12:46:16.571Z,32.45
2018-08-03T12:47:16.523Z,32.93
2018-08-03T12:48:16.510Z,32.93
2018-08-03T12:49:16.541Z,33.72
2018-08-03T12:50:16.462Z,33.91
2018-08-03T12:51:16.553Z,33.91
2018-08-03T12:52:16.432Z,33.70
2018-08-03T12:53:16.451Z,33.61
2018-08-03T12:54:16.393Z,33.69
2018-08-03T12:55:16.475Z,33.89
2018-08-03T12:56:16.351Z,33.98
2018-08-03T12:57:16.350Z,34.28
2018-08-03T12:58:16.320Z,33.69
2018-08-03T12:59:16.400Z,33.69
2018-08-03T13:00:16.277Z,33.79
2018-08-03T13:02:02.285Z,33.70
2018-08-03T13:03:02.256Z,33.70